createdAt,value
2019-04-16T00:02:52.235Z,9.00
2019-04-16T00:07:12.165Z,6.77
2019-04-16T00:11:24.707Z,6.27
2019-04-16T00:15:26.617Z,5.77
2019-04-16T00:19:28.518Z,6.97
2019-04-16T00:23:33.158Z,6.80
2019-04-16T00:27:35.083Z,7.10
2019-04-16T00:31:37.783Z,5.50
2019-04-16T00:35:39.751Z,5.60
2019-04-16T00:39:41.655Z,6.03
2019-04-16T00:43:44.213Z,7.03
2019-04-16T00:47:47.951Z,7.43
2019-04-16T00:51:49.940Z,6.47
2019-04-16T00:55:51.853Z,6.93
2019-04-16T00:59:56.351Z,7.30
2019-04-16T01:03:57.455Z,6.47
2019-04-16T01:07:59.363Z,5.35
2019-04-16T01:12:01.612Z,7.50
2019-04-16T01:16:04.175Z,5.13
2019-04-16T01:20:11.572Z,5.80
2019-04-16T01:24:12.128Z,7.53
2019-04-16T01:28:24.595Z,5.53
2019-04-16T01:32:28.182Z,7.77
2019-04-16T01:36:36.120Z,8.27
2019-04-16T01:40:43.651Z,6.37
2019-04-16T01:44:45.571Z,7.20
2019-04-16T01:49:09.808Z,8.90
2019-04-16T01:53:21.010Z,6.80
2019-04-16T01:57:23.730Z,7.33
2019-04-16T02:01:25.650Z,5.70
2019-04-16T02:05:27.543Z,4.80
2019-04-16T02:09:34.169Z,6.17
2019-04-16T02:13:33.373Z,5.70
2019-04-16T02:17:35.272Z,6.20
2019-04-16T02:21:39.003Z,6.40
2019-04-16T02:25:41.865Z,6.70
2019-04-16T02:29:43.910Z,6.10
2019-04-16T02:33:45.866Z,8.10
2019-04-16T02:37:47.893Z,6.43
2019-04-16T02:41:57.077Z,7.27
2019-04-16T02:45:58.440Z,6.43
2019-04-16T02:49:58.113Z,6.10
2019-04-16T02:54:13.925Z,5.17
2019-04-16T02:58:33.896Z,8.13
2019-04-16T03:02:32.957Z,6.20
2019-04-16T03:06:34.999Z,6.53
2019-04-16T03:10:36.900Z,7.00
2019-04-16T03:14:38.874Z,7.43
2019-04-16T03:18:46.907Z,6.47
2019-04-16T03:22:46.093Z,5.78
2019-04-16T03:26:50.525Z,7.42
2019-04-16T03:30:51.606Z,6.20
2019-04-16T03:34:54.167Z,5.92
2019-04-16T03:38:56.105Z,7.97
2019-04-16T03:42:59.331Z,6.33
2019-04-16T03:47:01.675Z,8.00
2019-04-16T03:51:04.420Z,7.83
2019-04-16T03:55:06.968Z,5.63
2019-04-16T03:59:11.858Z,5.85
2019-04-16T04:03:12.747Z,5.93
2019-04-16T04:07:14.682Z,8.17
2019-04-16T04:11:16.576Z,6.77
2019-04-16T04:15:18.506Z,6.93
2019-04-16T04:19:20.473Z,7.27
2019-04-16T04:23:22.422Z,5.73
2019-04-16T04:27:24.339Z,6.87
2019-04-16T04:31:26.275Z,7.93
2019-04-16T04:35:28.214Z,6.80
2019-04-16T04:39:30.151Z,6.97
2019-04-16T04:43:32.725Z,8.83
2019-04-16T04:47:34.752Z,7.60
2019-04-16T04:51:42.662Z,7.90
2019-04-16T04:55:40.283Z,6.73
2019-04-16T04:59:42.205Z,6.97
2019-04-16T05:04:02.227Z,10.17
2019-04-16T05:08:04.607Z,7.77
2019-04-16T05:12:08.287Z,7.80
2019-04-16T05:16:10.477Z,9.00
2019-04-16T05:20:15.375Z,7.30
2019-04-16T05:24:16.109Z,6.80
2019-04-16T05:28:18.046Z,10.10
2019-04-16T05:32:20.913Z,9.43
2019-04-16T05:36:22.844Z,6.37
2019-04-16T05:40:27.621Z,9.87
2019-04-16T05:44:33.051Z,10.20
2019-04-16T05:48:32.102Z,7.60
2019-04-16T05:52:52.962Z,7.60
2019-04-16T06:01:10.457Z,9.35
2019-04-16T06:05:13.491Z,10.43
2019-04-16T06:09:15.677Z,8.90
2019-04-16T06:13:26.604Z,6.43
2019-04-16T06:17:48.439Z,7.17
2019-04-16T06:22:03.834Z,9.67
2019-04-16T06:26:07.638Z,9.50
2019-04-16T06:30:17.379Z,9.10
2019-04-16T06:34:32.942Z,9.33
2019-04-16T06:38:51.187Z,8.73
2019-04-16T06:43:02.764Z,7.40
2019-04-16T06:47:10.518Z,9.60
2019-04-16T06:51:17.128Z,8.23
2019-04-16T06:55:36.011Z,9.70
2019-04-16T06:59:43.735Z,10.17
2019-04-16T07:03:47.317Z,8.50
2019-04-16T07:07:50.864Z,9.28
2019-04-16T07:11:55.045Z,11.03
2019-04-16T07:15:57.775Z,10.27
2019-04-16T07:19:59.882Z,9.73
2019-04-16T07:24:01.877Z,10.08
2019-04-16T07:28:05.448Z,10.33
2019-04-16T07:32:17.997Z,11.20
2019-04-16T07:36:30.256Z,10.87
2019-04-16T07:40:50.076Z,10.80
2019-04-16T07:44:56.331Z,11.08
2019-04-16T07:49:16.011Z,9.83
2019-04-16T07:53:22.455Z,10.93
2019-04-16T07:57:24.379Z,10.00
2019-04-16T08:01:26.285Z,10.13
2019-04-16T08:05:28.310Z,9.68
2019-04-16T08:09:33.503Z,11.53
2019-04-16T08:13:35.517Z,10.87
2019-04-16T08:17:37.452Z,9.33
2019-04-16T08:21:40.692Z,10.30
2019-04-16T08:25:44.267Z,9.30
2019-04-16T08:29:46.185Z,11.17
2019-04-16T08:33:48.098Z,11.07
2019-04-16T08:37:50.011Z,12.05
2019-04-16T08:41:53.008Z,11.43
2019-04-16T08:45:55.174Z,11.20
2019-04-16T08:49:57.107Z,12.78
2019-04-16T08:53:59.047Z,10.35
2019-04-16T08:58:05.898Z,10.77
2019-04-16T09:02:05.194Z,11.83
2019-04-16T09:06:07.191Z,11.50
2019-04-16T09:10:18.084Z,11.40
2019-04-16T09:14:21.042Z,12.80
2019-04-16T09:18:22.088Z,11.27
2019-04-16T09:22:24.097Z,12.00
2019-04-16T09:26:30.399Z,12.77
2019-04-16T09:30:40.880Z,12.03
2019-04-16T09:34:51.733Z,13.70
2019-04-16T09:38:55.308Z,12.53
2019-04-16T09:42:57.593Z,12.43
2019-04-16T09:47:00.586Z,13.40
2019-04-16T09:51:02.703Z,11.40
2019-04-16T09:55:05.830Z,13.80
2019-04-16T09:59:11.052Z,13.77
2019-04-16T10:03:14.776Z,13.00
2019-04-16T10:07:16.733Z,12.90
2019-04-16T10:11:19.454Z,13.60
2019-04-16T10:15:21.695Z,13.57
2019-04-16T10:19:23.831Z,13.90
2019-04-16T10:23:27.399Z,13.90
2019-04-16T10:27:32.496Z,12.37
2019-04-16T10:31:34.511Z,11.67
2019-04-16T10:35:36.484Z,11.53
2019-04-16T10:39:42.699Z,11.10
2019-04-16T10:43:46.814Z,10.93
2019-04-16T10:47:50.689Z,10.72
2019-04-16T10:52:09.360Z,11.63
2019-04-16T10:56:28.591Z,12.20
2019-04-16T11:00:34.967Z,11.17
2019-04-16T11:04:54.407Z,11.73
2019-04-16T11:08:56.328Z,11.27
2019-04-16T11:12:58.255Z,12.50
2019-04-16T11:17:00.201Z,11.60
2019-04-16T11:21:02.416Z,12.45
2019-04-16T11:25:05.872Z,11.53
2019-04-16T11:29:07.763Z,10.80
2019-04-16T11:33:09.748Z,10.57
2019-04-16T11:37:11.794Z,11.53
2019-04-16T11:41:13.759Z,10.53
2019-04-16T11:45:16.285Z,10.73
2019-04-16T11:49:18.276Z,10.83
2019-04-16T11:53:30.118Z,12.73
2019-04-16T11:57:33.993Z,10.03
2019-04-16T12:01:52.314Z,11.03
2019-04-16T12:06:27.166Z,11.33
2019-04-16T12:10:16.538Z,11.57
2019-04-16T12:14:42.010Z,9.80
2019-04-16T12:18:53.548Z,9.93
2019-04-16T12:23:12.261Z,10.48
2019-04-16T12:27:14.156Z,11.47
2019-04-16T12:31:17.750Z,9.90
2019-04-16T12:35:21.285Z,10.60
2019-04-16T12:39:24.887Z,9.40
2019-04-16T12:43:26.658Z,10.40
2019-04-16T12:47:36.513Z,10.47
2019-04-16T12:51:55.141Z,10.20
2019-04-16T12:56:05.763Z,9.88
2019-04-16T13:00:07.049Z,10.37
2019-04-16T13:04:13.457Z,9.80
2019-04-16T13:08:15.165Z,9.47
2019-04-16T13:12:32.857Z,10.30
2019-04-16T13:16:54.480Z,10.20
2019-04-16T13:21:05.493Z,10.07
2019-04-16T13:25:22.250Z,10.87
2019-04-16T13:29:28.974Z,9.97
2019-04-16T13:33:27.861Z,9.67
2019-04-16T13:37:33.626Z,9.90
2019-04-16T13:41:33.406Z,9.00
2019-04-16T13:45:36.702Z,10.07
2019-04-16T13:49:42.936Z,10.10
2019-04-16T13:53:52.495Z,9.73
2019-04-16T13:58:02.206Z,10.20
2019-04-16T14:02:17.315Z,9.50
2019-04-16T14:06:18.295Z,10.13
2019-04-16T14:10:20.204Z,8.77
2019-04-16T14:14:23.806Z,10.20
2019-04-16T14:18:25.805Z,9.63
2019-04-16T14:22:27.726Z,9.40
2019-04-16T14:26:29.647Z,10.20
2019-04-16T14:30:33.241Z,8.80
2019-04-16T14:34:37.859Z,8.53
2019-04-16T14:38:41.418Z,7.97
2019-04-16T14:42:43.325Z,9.63
2019-04-16T14:46:45.254Z,8.40
2019-04-16T14:50:47.175Z,9.07
2019-04-16T14:54:50.740Z,8.37
2019-04-16T14:59:06.539Z,8.73
2019-04-16T15:03:26.311Z,8.17
2019-04-16T15:07:29.883Z,8.70
2019-04-16T15:11:51.954Z,8.37
2019-04-16T15:16:08.239Z,7.73
2019-04-16T15:20:16.593Z,8.88
2019-04-16T15:24:20.215Z,7.57
2019-04-16T15:28:26.253Z,7.00
2019-04-16T15:32:39.610Z,7.00
2019-04-16T15:36:50.578Z,7.10
2019-04-16T15:40:54.364Z,7.67
2019-04-16T15:45:02.131Z,7.08
2019-04-16T15:49:07.101Z,7.80
2019-04-16T15:53:16.852Z,8.20
2019-04-16T15:57:23.087Z,8.05
2019-04-16T16:01:29.346Z,5.97
2019-04-16T16:05:36.714Z,7.90
2019-04-16T16:09:41.133Z,7.90
2019-04-16T16:13:42.072Z,7.57
2019-04-16T16:17:44.832Z,6.87
2019-04-16T16:21:46.761Z,7.30
2019-04-16T16:25:48.681Z,6.93
2019-04-16T16:29:50.635Z,7.53
2019-04-16T16:33:52.566Z,7.00
2019-04-16T16:37:54.491Z,5.90
2019-04-16T16:41:56.700Z,6.92
2019-04-16T16:46:03.039Z,8.20
2019-04-16T16:50:07.322Z,8.20
2019-04-16T16:54:11.162Z,7.17
2019-04-16T16:58:32.847Z,7.33
2019-04-16T17:02:37.385Z,6.67
2019-04-16T17:06:39.303Z,6.47
2019-04-16T17:10:42.615Z,6.53
2019-04-16T17:14:45.689Z,7.10
2019-04-16T17:18:47.607Z,6.20
2019-04-16T17:22:49.530Z,6.25
2019-04-16T17:26:51.459Z,4.63
2019-04-16T17:30:53.531Z,5.10
2019-04-16T17:34:55.535Z,6.97
2019-04-16T17:38:57.481Z,6.90
2019-04-16T17:43:12.644Z,6.23
2019-04-16T17:47:31.921Z,5.80
2019-04-16T17:51:24.526Z,6.10
2019-04-16T17:55:28.092Z,6.10
2019-04-16T17:59:34.240Z,6.40
2019-04-16T18:03:38.657Z,5.53
2019-04-16T18:07:57.827Z,4.73
2019-04-16T18:12:13.731Z,6.30
2019-04-16T18:16:16.681Z,5.83
2019-04-16T18:20:18.859Z,5.80
2019-04-16T18:24:23.493Z,6.30
2019-04-16T18:28:25.817Z,5.20
2019-04-16T18:32:38.627Z,5.47
2019-04-16T18:36:55.547Z,5.53
2019-04-16T18:41:08.991Z,4.87
2019-04-16T18:45:22.594Z,5.62
2019-04-16T18:49:26.143Z,5.80
2019-04-16T18:53:28.078Z,4.93
2019-04-16T18:57:30.097Z,5.27
2019-04-16T19:01:33.660Z,5.93
2019-04-16T19:05:35.564Z,5.23
2019-04-16T19:09:37.655Z,4.90
2019-04-16T19:13:39.565Z,4.50
2019-04-16T19:17:41.476Z,6.10
2019-04-16T19:21:43.491Z,6.00
2019-04-16T19:25:45.381Z,4.87
2019-04-16T19:29:47.289Z,5.20
2019-04-16T19:33:49.207Z,4.55
2019-04-16T19:37:51.131Z,6.35
2019-04-16T19:41:57.484Z,4.65
2019-04-16T19:45:56.881Z,5.93
2019-04-16T19:49:58.983Z,5.87
2019-04-16T19:54:01.683Z,4.45
2019-04-16T19:58:03.656Z,6.10
2019-04-16T20:02:05.754Z,4.57
2019-04-16T20:06:07.884Z,6.77
2019-04-16T20:10:10.297Z,4.63
2019-04-16T20:14:12.185Z,6.30
2019-04-16T20:18:14.107Z,5.40
2019-04-16T20:22:16.046Z,5.40
2019-04-16T20:26:17.931Z,5.00
2019-04-16T20:30:24.251Z,4.85
2019-04-16T20:34:24.513Z,5.80
2019-04-16T20:38:29.183Z,4.60
2019-04-16T20:42:30.003Z,5.10
2019-04-16T20:46:31.900Z,5.23
2019-04-16T20:50:33.805Z,4.87
2019-04-16T20:54:36.278Z,4.83
2019-04-16T20:58:38.650Z,5.30
2019-04-16T21:02:40.543Z,5.23
2019-04-16T21:06:42.448Z,5.00
2019-04-16T21:10:44.961Z,5.73
2019-04-16T21:14:46.859Z,4.40
2019-04-16T21:18:48.767Z,5.70
2019-04-16T21:22:50.653Z,6.25
2019-04-16T21:26:52.561Z,5.95
2019-04-16T21:30:56.119Z,6.10
2019-04-16T21:35:00.934Z,4.80
2019-04-16T21:39:10.678Z,5.20
2019-04-16T21:43:13.652Z,4.87
2019-04-16T21:47:15.557Z,6.03
2019-04-16T21:51:19.508Z,6.33
2019-04-16T21:55:21.053Z,6.87
2019-04-16T21:59:22.959Z,5.50
2019-04-16T22:03:26.502Z,5.73
2019-04-16T22:07:28.438Z,7.10
2019-04-16T22:11:30.336Z,5.13
2019-04-16T22:15:32.247Z,7.13
2019-04-16T22:19:34.150Z,5.97
2019-04-16T22:23:36.038Z,6.20
2019-04-16T22:27:39.674Z,4.97
2019-04-16T22:31:41.802Z,4.87
2019-04-16T22:35:44.942Z,4.90
2019-04-16T22:39:51.972Z,6.13
2019-04-16T22:44:04.280Z,4.30
2019-04-16T22:48:06.322Z,5.77
2019-04-16T22:52:08.401Z,5.33
2019-04-16T22:56:10.313Z,5.77
2019-04-16T23:00:14.265Z,5.30
2019-04-16T23:04:17.829Z,6.00
2019-04-16T23:08:19.734Z,7.77
2019-04-16T23:12:24.488Z,5.60
2019-04-16T23:16:25.252Z,7.62
2019-04-16T23:20:29.671Z,6.80
2019-04-16T23:24:32.335Z,4.73
2019-04-16T23:28:34.354Z,4.97
2019-04-16T23:32:37.233Z,6.50
2019-04-16T23:36:39.227Z,7.43
2019-04-16T23:40:43.963Z,5.80
2019-04-16T23:44:54.718Z,5.77
2019-04-16T23:48:58.275Z,7.10
2019-04-16T23:53:04.076Z,4.80
2019-04-16T23:57:07.073Z,6.30
